Hilly, Louisiana
Current Conditions -  °F | °C
As of 10:35 AM on Wednesday 22 Oct 2014 (Local Time) from KRSN Reporting Station
Clear Clear  
Wind Chill: 68°   Ceiling: Unl
Heat Index: 68°   Visibility: 10mi
Dew Point: 56°   Wind: 5mph
Humidity: 65%   Direction: 110°ESE
Pressure: 30.22"   Gusts: NA
Location:  32.6988°N, 92.6981°W
Report Text: KRSN 221535Z AUTO 11004KT 10SM CLR 20/13 A3022 RMK AO2 T02010133
Loading
Personal Weather Stations






























Interactive Weather Map New forecast layout! Learn more

10-Day Weather Forecast

Advertisements
Track Severe Weather on mobile